Main page
METAR-TAF:

METAR-TAF

Airports :

Værøy Heliport

Værøy, Norway

latitude: 67-39-16N, longitude: 12-43-37E, elevation: 5 m

Current weather observation

The report was made 4 hours and 39 minutes ago, at 13:50 UTC
Wind 6 kt from the Northwest
Temperature 14°C
Humidity 88%
Pressure 1013 hPa
Visibility 10 km or more
Scattered clouds at a height of 900 ft
Broken clouds at a height of 1300 ft

METAR: ENVR 231350Z 32006KT 9999 SCT009 BKN013 14/12 Q1013

Time: 20:29 (18:29 UTC)


TAF: missing

Weather observations and forecasts of more than 4000 airports (METAR and TAF reports).

The available stations are represented by yellow and red dots on the map.

Hover mouse over dot to see the name of the station.

Then click to see weather observations and forecasts.

To change the map : click on the green buttons with a black cross to zoom in, on the green button with a dash to zoom out, or on the green arrows for adjacent maps.


METAR-TAF: